AAY1073 KJQF-KPIE
Flight info
| Callsign | AAY1073 |
|---|---|
| Flight time | N/A |
| Altitude | 36000 |
| Route | BEAVY6 JENDO MAVRC TEUFL BAAMF DADES2 |
| Aircraft | A320/M-SDE3FGHIRWY/LB1 |
Departure
| Time | 2026-05-08 22:17 |
|---|---|
| Airport | Concord-Padgett Regional Airport (KJQF) |
Arrival
| Time | N/A |
|---|---|
| Airport | St. Petersburg Clearwater International Airport (KPIE) |
| Time | Latitude | Longitude | Altitude | Speed | Heading |
|---|---|---|---|---|---|
| 2026-05-08 21:59 | 35.38035 | -80.71315 | 668 ft | 0 kts | 327° |
| 2026-05-08 22:08 | 35.38029 | -80.71311 | 666 ft | 4 kts | 326° |
| 2026-05-08 22:08 | 35.38007 | -80.71292 | 666 ft | 4 kts | 327° |
| 2026-05-08 22:08 | 35.37985 | -80.71281 | 667 ft | 3 kts | 9° |
| 2026-05-08 22:08 | 35.37983 | -80.71281 | 667 ft | 0 kts | 11° |
| 2026-05-08 22:11 | 35.38010 | -80.71275 | 667 ft | 7 kts | 10° |
| 2026-05-08 22:11 | 35.38056 | -80.71264 | 667 ft | 6 kts | 10° |
| 2026-05-08 22:11 | 35.38088 | -80.71245 | 667 ft | 4 kts | 59° |
| 2026-05-08 22:12 | 35.38095 | -80.71211 | 668 ft | 5 kts | 63° |
| 2026-05-08 22:12 | 35.38156 | -80.71190 | 671 ft | 10 kts | 12° |
| 2026-05-08 22:12 | 35.38221 | -80.71172 | 670 ft | 9 kts | 12° |
| 2026-05-08 22:12 | 35.38285 | -80.71157 | 669 ft | 10 kts | 8° |
| 2026-05-08 22:13 | 35.38353 | -80.71145 | 668 ft | 10 kts | 8° |
| 2026-05-08 22:13 | 35.38415 | -80.71133 | 668 ft | 8 kts | 9° |
| 2026-05-08 22:13 | 35.38464 | -80.71122 | 668 ft | 6 kts | 11° |
| 2026-05-08 22:13 | 35.38500 | -80.71113 | 669 ft | 7 kts | 11° |
| 2026-05-08 22:14 | 35.38582 | -80.71095 | 669 ft | 14 kts | 10° |
| 2026-05-08 22:14 | 35.38677 | -80.71073 | 667 ft | 17 kts | 10° |
| 2026-05-08 22:14 | 35.38815 | -80.71044 | 668 ft | 23 kts | 9° |
| 2026-05-08 22:14 | 35.38992 | -80.71004 | 669 ft | 27 kts | 11° |
| 2026-05-08 22:15 | 35.39179 | -80.70959 | 670 ft | 28 kts | 9° |
| 2026-05-08 22:15 | 35.39376 | -80.70916 | 667 ft | 30 kts | 11° |
| 2026-05-08 22:15 | 35.39583 | -80.70868 | 669 ft | 31 kts | 11° |
| 2026-05-08 22:15 | 35.39766 | -80.70825 | 666 ft | 13 kts | 12° |
| 2026-05-08 22:16 | 35.39780 | -80.70749 | 665 ft | 12 kts | 101° |
| 2026-05-08 22:16 | 35.39716 | -80.70702 | 664 ft | 14 kts | 191° |
| 2026-05-08 22:16 | 35.39530 | -80.70743 | 664 ft | 60 kts | 190° |
| 2026-05-08 22:16 | 35.38841 | -80.70899 | 671 ft | 138 kts | 190° |
| 2026-05-08 22:17 | 35.37728 | -80.71152 | 1014 ft | 172 kts | 191° |
| 2026-05-08 22:17 | 35.36612 | -80.71623 | 2053 ft | 166 kts | 203° |
| 2026-05-08 22:17 | 35.35497 | -80.72049 | 2595 ft | 177 kts | 193° |
| 2026-05-08 22:17 | 35.34227 | -80.72424 | 2879 ft | 199 kts | 198° |
| 2026-05-08 22:18 | 35.32849 | -80.73044 | 3172 ft | 224 kts | 201° |
| 2026-05-08 22:18 | 35.31322 | -80.73785 | 3591 ft | 248 kts | 202° |
| 2026-05-08 22:18 | 35.29681 | -80.74584 | 4297 ft | 259 kts | 202° |
| 2026-05-08 22:18 | 35.27992 | -80.75406 | 5226 ft | 262 kts | 202° |
| 2026-05-08 22:19 | 35.26287 | -80.76229 | 6151 ft | 265 kts | 202° |
| 2026-05-08 22:19 | 35.24557 | -80.77057 | 7023 ft | 269 kts | 202° |
| 2026-05-08 22:19 | 35.22817 | -80.77859 | 7840 ft | 273 kts | 202° |
| 2026-05-08 22:19 | 35.21015 | -80.78643 | 8694 ft | 277 kts | 202° |
| 2026-05-08 22:20 | 35.19192 | -80.79455 | 9534 ft | 281 kts | 205° |
| 2026-05-08 22:20 | 35.17360 | -80.80341 | 9945 ft | 285 kts | 207° |
| 2026-05-08 22:20 | 35.15472 | -80.81292 | 10354 ft | 304 kts | 207° |
| 2026-05-08 22:20 | 35.13445 | -80.82325 | 10615 ft | 326 kts | 207° |
| 2026-05-08 22:21 | 35.11313 | -80.83402 | 11186 ft | 335 kts | 207° |
| 2026-05-08 22:21 | 35.09141 | -80.84482 | 11913 ft | 339 kts | 207° |
| 2026-05-08 22:21 | 35.06944 | -80.85566 | 12669 ft | 342 kts | 207° |
| 2026-05-08 22:21 | 35.04724 | -80.86657 | 13410 ft | 345 kts | 207° |
| 2026-05-08 22:22 | 35.02486 | -80.87757 | 14126 ft | 348 kts | 207° |
| 2026-05-08 22:22 | 35.00227 | -80.88870 | 14773 ft | 351 kts | 208° |
| 2026-05-08 22:22 | 34.97953 | -80.89992 | 15425 ft | 354 kts | 208° |
| 2026-05-08 22:22 | 34.95662 | -80.91125 | 16076 ft | 357 kts | 208° |
| 2026-05-08 22:23 | 34.93353 | -80.92267 | 16726 ft | 360 kts | 209° |
| 2026-05-08 22:23 | 34.91021 | -80.93416 | 17370 ft | 362 kts | 209° |
| 2026-05-08 22:23 | 34.88674 | -80.94567 | 17988 ft | 365 kts | 210° |
| 2026-05-08 22:23 | 34.86342 | -80.95709 | 18567 ft | 367 kts | 210° |
| 2026-05-08 22:24 | 34.83931 | -80.96890 | 19125 ft | 370 kts | 210° |
| 2026-05-08 22:24 | 34.81572 | -80.98042 | 19668 ft | 371 kts | 210° |
| 2026-05-08 22:24 | 34.79169 | -80.99218 | 20218 ft | 373 kts | 210° |
| 2026-05-08 22:24 | 34.76754 | -81.00403 | 20763 ft | 375 kts | 210° |
| 2026-05-08 22:25 | 34.74331 | -81.01595 | 21303 ft | 377 kts | 211° |
| 2026-05-08 22:25 | 34.71896 | -81.02791 | 21829 ft | 379 kts | 211° |
| 2026-05-08 22:25 | 34.70242 | -81.03602 | 22177 ft | 380 kts | 211° |
| 2026-05-08 22:25 | 34.66984 | -81.05201 | 22854 ft | 383 kts | 211° |
| 2026-05-08 22:26 | 34.65345 | -81.06003 | 23152 ft | 384 kts | 211° |
| 2026-05-08 22:26 | 34.62861 | -81.07216 | 23648 ft | 386 kts | 211° |
| 2026-05-08 22:26 | 34.60365 | -81.08434 | 24057 ft | 387 kts | 211° |
| 2026-05-08 22:26 | 34.57855 | -81.09646 | 24484 ft | 390 kts | 210° |
| 2026-05-08 22:27 | 34.55193 | -81.10526 | 24879 ft | 404 kts | 201° |
| 2026-05-08 22:27 | 34.52414 | -81.11117 | 25272 ft | 406 kts | 201° |
| 2026-05-08 22:27 | 34.48714 | -81.11902 | 25781 ft | 409 kts | 201° |
| 2026-05-08 22:27 | 34.45909 | -81.12497 | 26157 ft | 410 kts | 201° |
| 2026-05-08 22:28 | 34.44008 | -81.12901 | 26428 ft | 411 kts | 202° |
| 2026-05-08 22:28 | 34.41183 | -81.13502 | 26786 ft | 413 kts | 201° |
| 2026-05-08 22:28 | 34.38389 | -81.14099 | 27195 ft | 414 kts | 201° |
| 2026-05-08 22:28 | 34.35561 | -81.14747 | 27582 ft | 412 kts | 204° |
| 2026-05-08 22:29 | 34.32772 | -81.15514 | 27952 ft | 411 kts | 205° |
| 2026-05-08 22:29 | 34.30002 | -81.16366 | 28313 ft | 411 kts | 206° |
| 2026-05-08 22:29 | 34.27236 | -81.17257 | 28666 ft | 412 kts | 207° |
| 2026-05-08 22:29 | 34.24460 | -81.18154 | 29005 ft | 414 kts | 207° |
| 2026-05-08 22:30 | 34.21670 | -81.19041 | 29326 ft | 416 kts | 207° |
| 2026-05-08 22:30 | 34.18863 | -81.19912 | 29667 ft | 417 kts | 206° |
| 2026-05-08 22:30 | 34.16040 | -81.20768 | 29928 ft | 419 kts | 206° |
| 2026-05-08 22:30 | 34.13235 | -81.21608 | 30139 ft | 423 kts | 204° |
| 2026-05-08 22:31 | 34.10365 | -81.22462 | 30350 ft | 426 kts | 204° |
| 2026-05-08 22:31 | 34.07480 | -81.23319 | 30597 ft | 428 kts | 204° |
| 2026-05-08 22:31 | 34.04589 | -81.24179 | 30914 ft | 427 kts | 204° |
| 2026-05-08 22:31 | 34.01712 | -81.25032 | 31291 ft | 425 kts | 204° |
| 2026-05-08 22:32 | 33.98847 | -81.25885 | 31673 ft | 423 kts | 205° |
| 2026-05-08 22:32 | 33.95997 | -81.26738 | 32055 ft | 421 kts | 205° |
| 2026-05-08 22:32 | 33.93161 | -81.27590 | 32438 ft | 419 kts | 205° |
| 2026-05-08 22:32 | 33.90338 | -81.28438 | 32782 ft | 417 kts | 205° |
| 2026-05-08 22:33 | 33.87525 | -81.29280 | 33142 ft | 416 kts | 205° |
| 2026-05-08 22:33 | 33.84719 | -81.30119 | 33516 ft | 414 kts | 205° |
| 2026-05-08 22:33 | 33.82013 | -81.31152 | 33894 ft | 404 kts | 210° |
| 2026-05-08 22:33 | 33.79374 | -81.32296 | 34240 ft | 402 kts | 211° |
| 2026-05-08 22:34 | 33.76748 | -81.33439 | 34572 ft | 401 kts | 211° |
| 2026-05-08 22:34 | 33.74166 | -81.34568 | 34880 ft | 399 kts | 211° |
| 2026-05-08 22:34 | 33.71560 | -81.35709 | 35177 ft | 398 kts | 211° |
| 2026-05-08 22:34 | 33.68960 | -81.36845 | 35458 ft | 397 kts | 211° |
| 2026-05-08 22:35 | 33.66361 | -81.37977 | 35731 ft | 396 kts | 211° |
| 2026-05-08 22:35 | 33.63770 | -81.39100 | 35937 ft | 397 kts | 211° |
| 2026-05-08 22:35 | 33.61169 | -81.40227 | 36016 ft | 398 kts | 211° |
| 2026-05-08 22:36 | 33.55960 | -81.42476 | 36025 ft | 398 kts | 211° |
| 2026-05-08 22:36 | 33.50758 | -81.44731 | 36032 ft | 398 kts | 211° |
| 2026-05-08 22:37 | 33.45553 | -81.46982 | 36038 ft | 398 kts | 211° |
| 2026-05-08 22:37 | 33.40348 | -81.49227 | 36041 ft | 398 kts | 211° |
| 2026-05-08 22:38 | 33.35174 | -81.51462 | 36007 ft | 399 kts | 210° |
| 2026-05-08 22:38 | 33.29938 | -81.53719 | 36011 ft | 401 kts | 210° |
| 2026-05-08 22:39 | 33.24679 | -81.55976 | 36016 ft | 402 kts | 210° |
| 2026-05-08 22:39 | 33.19405 | -81.58237 | 36009 ft | 403 kts | 210° |